CheckWX is a tool to help pilots better visualize weather data.  It is not intended as a substitute for an official pre-flight weather briefing.

05:26:03 UTC

KJAS METAR
Jasper County-Bell Field Airport
Jasper, Texas, USA
Current

31 mins ago

KJAS 240455Z AUTO 00000KT 10SM CLR 09/08 A3005 RMK AO2 T00930081
Observed
Feb-24 @ 04:55 UTC
Visibility
10 SM
Flight Rules
VFR
Cloud Levels
  • Clear skies
Temperature
C / 48°F
Dewpoint
C / 46°F
Humidity
94%
Altimeter
30.05" Hg
Pressure
1017.62 hPa
Previous

51 mins ago

KJAS 240435Z AUTO 00000KT 10SM CLR 10/09 A3004 RMK AO2 T00970087
Observed
Feb-24 @ 04:35 UTC
Visibility
10 SM
Flight Rules
VFR
Cloud Levels
  • Clear skies
Temperature
10°C / 50°F
Dewpoint
C / 48°F
Humidity
94%
Altimeter
30.04" Hg
Pressure
1017.32 hPa
Previous

1 hour ago

KJAS 240415Z AUTO 00000KT 10SM CLR 10/09 A3005 RMK AO2 T01010087
Observed
Feb-24 @ 04:15 UTC
Visibility
10 SM
Flight Rules
VFR
Cloud Levels
  • Clear skies
Temperature
10°C / 50°F
Dewpoint
C / 48°F
Humidity
94%
Altimeter
30.05" Hg
Pressure
1017.62 hPa